sensor_id;sensor_type;location;lat;lon;timestamp;P1;durP1;ratioP1;P2;durP2;ratioP2
24617;SDS011;12762;51.730;5.356;2023-03-14T00:02:12;5.27;;;1.33;;
24617;SDS011;12762;51.730;5.356;2023-03-14T00:04:38;6.97;;;1.37;;
24617;SDS011;12762;51.730;5.356;2023-03-14T00:07:06;7.00;;;1.63;;
24617;SDS011;12762;51.730;5.356;2023-03-14T00:09:33;5.27;;;1.47;;
24617;SDS011;12762;51.730;5.356;2023-03-14T00:11:59;5.60;;;1.33;;
24617;SDS011;12762;51.730;5.356;2023-03-14T00:14:26;3.27;;;0.87;;
24617;SDS011;12762;51.730;5.356;2023-03-14T00:16:53;5.07;;;1.03;;
24617;SDS011;12762;51.730;5.356;2023-03-14T00:19:22;5.33;;;1.43;;
24617;SDS011;12762;51.730;5.356;2023-03-14T00:21:49;5.73;;;1.43;;
24617;SDS011;12762;51.730;5.356;2023-03-14T00:24:15;6.97;;;1.23;;
24617;SDS011;12762;51.730;5.356;2023-03-14T00:26:42;6.30;;;1.23;;
24617;SDS011;12762;51.730;5.356;2023-03-14T00:29:09;9.73;;;1.30;;
24617;SDS011;12762;51.730;5.356;2023-03-14T00:31:36;6.60;;;1.23;;
24617;SDS011;12762;51.730;5.356;2023-03-14T00:34:03;4.33;;;1.03;;
24617;SDS011;12762;51.730;5.356;2023-03-14T00:36:30;4.27;;;1.20;;
24617;SDS011;12762;51.730;5.356;2023-03-14T00:38:56;8.10;;;1.57;;
24617;SDS011;12762;51.730;5.356;2023-03-14T00:41:23;3.97;;;1.20;;
24617;SDS011;12762;51.730;5.356;2023-03-14T00:43:50;6.47;;;1.27;;
24617;SDS011;12762;51.730;5.356;2023-03-14T00:46:17;4.10;;;0.97;;
24617;SDS011;12762;51.730;5.356;2023-03-14T00:48:45;6.33;;;1.57;;
24617;SDS011;12762;51.730;5.356;2023-03-14T00:51:14;5.20;;;1.40;;
24617;SDS011;12762;51.730;5.356;2023-03-14T00:53:43;6.80;;;1.50;;
24617;SDS011;12762;51.730;5.356;2023-03-14T00:56:13;8.37;;;1.47;;
24617;SDS011;12762;51.730;5.356;2023-03-14T00:58:40;5.57;;;1.10;;
24617;SDS011;12762;51.730;5.356;2023-03-14T01:01:08;9.77;;;1.10;;
24617;SDS011;12762;51.730;5.356;2023-03-14T01:03:37;6.87;;;1.20;;
24617;SDS011;12762;51.730;5.356;2023-03-14T01:06:10;7.20;;;1.07;;
24617;SDS011;12762;51.730;5.356;2023-03-14T01:08:42;6.57;;;1.10;;
24617;SDS011;12762;51.730;5.356;2023-03-14T01:11:10;3.80;;;1.10;;
24617;SDS011;12762;51.730;5.356;2023-03-14T01:13:39;3.83;;;0.90;;
24617;SDS011;12762;51.730;5.356;2023-03-14T01:16:07;4.23;;;0.90;;
24617;SDS011;12762;51.730;5.356;2023-03-14T01:18:35;9.17;;;1.40;;
24617;SDS011;12762;51.730;5.356;2023-03-14T01:21:03;5.23;;;1.17;;
24617;SDS011;12762;51.730;5.356;2023-03-14T01:23:35;7.70;;;1.10;;
24617;SDS011;12762;51.730;5.356;2023-03-14T01:26:02;6.00;;;1.20;;
24617;SDS011;12762;51.730;5.356;2023-03-14T01:28:29;7.43;;;1.10;;
24617;SDS011;12762;51.730;5.356;2023-03-14T01:30:55;8.17;;;1.60;;
24617;SDS011;12762;51.730;5.356;2023-03-14T01:33:27;8.20;;;1.00;;
24617;SDS011;12762;51.730;5.356;2023-03-14T01:35:57;5.50;;;0.93;;
24617;SDS011;12762;51.730;5.356;2023-03-14T01:38:24;6.63;;;1.00;;
24617;SDS011;12762;51.730;5.356;2023-03-14T01:40:51;6.60;;;1.10;;
24617;SDS011;12762;51.730;5.356;2023-03-14T01:43:20;7.50;;;1.40;;
24617;SDS011;12762;51.730;5.356;2023-03-14T01:48:40;4.73;;;1.03;;
24617;SDS011;12762;51.730;5.356;2023-03-14T01:51:21;7.70;;;1.07;;
24617;SDS011;12762;51.730;5.356;2023-03-14T01:53:59;8.60;;;1.20;;
24617;SDS011;12762;51.730;5.356;2023-03-14T01:56:48;5.87;;;1.30;;
24617;SDS011;12762;51.730;5.356;2023-03-14T01:59:21;6.17;;;1.03;;
24617;SDS011;12762;51.730;5.356;2023-03-14T02:01:48;4.73;;;1.10;;
24617;SDS011;12762;51.730;5.356;2023-03-14T02:04:17;5.70;;;1.60;;
24617;SDS011;12762;51.730;5.356;2023-03-14T02:09:20;7.80;;;1.03;;
24617;SDS011;12762;51.730;5.356;2023-03-14T02:11:50;10.20;;;1.63;;
24617;SDS011;12762;51.730;5.356;2023-03-14T02:14:28;5.83;;;1.10;;
24617;SDS011;12762;51.730;5.356;2023-03-14T02:16:58;5.67;;;0.83;;
24617;SDS011;12762;51.730;5.356;2023-03-14T02:19:30;4.30;;;1.00;;
24617;SDS011;12762;51.730;5.356;2023-03-14T02:22:15;5.43;;;1.10;;
24617;SDS011;12762;51.730;5.356;2023-03-14T02:27:48;5.73;;;1.07;;
24617;SDS011;12762;51.730;5.356;2023-03-14T02:30:24;8.27;;;1.30;;
24617;SDS011;12762;51.730;5.356;2023-03-14T02:33:04;6.27;;;1.30;;
24617;SDS011;12762;51.730;5.356;2023-03-14T02:35:38;7.23;;;1.27;;
24617;SDS011;12762;51.730;5.356;2023-03-14T02:40:59;5.93;;;1.50;;
24617;SDS011;12762;51.730;5.356;2023-03-14T02:43:26;9.47;;;1.33;;
24617;SDS011;12762;51.730;5.356;2023-03-14T02:45:53;6.60;;;1.37;;
24617;SDS011;12762;51.730;5.356;2023-03-14T02:48:24;8.73;;;1.20;;
24617;SDS011;12762;51.730;5.356;2023-03-14T02:50:58;7.63;;;1.43;;
24617;SDS011;12762;51.730;5.356;2023-03-14T02:53:32;8.03;;;1.37;;
24617;SDS011;12762;51.730;5.356;2023-03-14T02:56:02;6.60;;;1.50;;
24617;SDS011;12762;51.730;5.356;2023-03-14T02:58:33;8.27;;;1.47;;
24617;SDS011;12762;51.730;5.356;2023-03-14T03:01:00;10.17;;;1.90;;
24617;SDS011;12762;51.730;5.356;2023-03-14T03:03:27;6.23;;;1.20;;
24617;SDS011;12762;51.730;5.356;2023-03-14T03:05:54;14.80;;;2.07;;
24617;SDS011;12762;51.730;5.356;2023-03-14T03:08:24;10.17;;;1.67;;
24617;SDS011;12762;51.730;5.356;2023-03-14T03:10:52;7.10;;;1.60;;
24617;SDS011;12762;51.730;5.356;2023-03-14T03:13:20;5.67;;;1.50;;
24617;SDS011;12762;51.730;5.356;2023-03-14T03:15:47;10.10;;;1.60;;
24617;SDS011;12762;51.730;5.356;2023-03-14T03:18:13;10.90;;;1.90;;
24617;SDS011;12762;51.730;5.356;2023-03-14T03:20:41;7.63;;;1.87;;
24617;SDS011;12762;51.730;5.356;2023-03-14T03:23:07;8.80;;;1.73;;
24617;SDS011;12762;51.730;5.356;2023-03-14T03:25:34;8.80;;;2.13;;
24617;SDS011;12762;51.730;5.356;2023-03-14T03:28:01;7.60;;;1.40;;
24617;SDS011;12762;51.730;5.356;2023-03-14T03:30:28;10.13;;;2.00;;
24617;SDS011;12762;51.730;5.356;2023-03-14T03:32:55;10.00;;;1.70;;
24617;SDS011;12762;51.730;5.356;2023-03-14T03:35:22;9.10;;;1.50;;
24617;SDS011;12762;51.730;5.356;2023-03-14T03:37:49;5.73;;;1.00;;
24617;SDS011;12762;51.730;5.356;2023-03-14T03:40:16;7.83;;;1.50;;
24617;SDS011;12762;51.730;5.356;2023-03-14T03:42:43;6.33;;;1.40;;
24617;SDS011;12762;51.730;5.356;2023-03-14T03:45:10;7.40;;;1.30;;
24617;SDS011;12762;51.730;5.356;2023-03-14T03:47:36;8.57;;;1.80;;
24617;SDS011;12762;51.730;5.356;2023-03-14T03:50:03;7.80;;;1.37;;
24617;SDS011;12762;51.730;5.356;2023-03-14T03:52:31;7.33;;;1.73;;
24617;SDS011;12762;51.730;5.356;2023-03-14T03:55:00;6.13;;;1.20;;
24617;SDS011;12762;51.730;5.356;2023-03-14T03:57:27;5.40;;;1.20;;
24617;SDS011;12762;51.730;5.356;2023-03-14T03:59:54;9.60;;;1.50;;
24617;SDS011;12762;51.730;5.356;2023-03-14T04:02:21;7.43;;;1.30;;
24617;SDS011;12762;51.730;5.356;2023-03-14T04:04:47;6.23;;;1.03;;
24617;SDS011;12762;51.730;5.356;2023-03-14T04:07:14;9.30;;;1.27;;
24617;SDS011;12762;51.730;5.356;2023-03-14T04:09:41;5.30;;;1.53;;
24617;SDS011;12762;51.730;5.356;2023-03-14T04:12:11;7.80;;;1.20;;
24617;SDS011;12762;51.730;5.356;2023-03-14T04:14:38;6.53;;;1.07;;
24617;SDS011;12762;51.730;5.356;2023-03-14T04:17:07;5.17;;;1.07;;
24617;SDS011;12762;51.730;5.356;2023-03-14T04:19:37;3.50;;;0.90;;
24617;SDS011;12762;51.730;5.356;2023-03-14T04:22:04;9.07;;;1.30;;
24617;SDS011;12762;51.730;5.356;2023-03-14T04:24:31;8.60;;;1.97;;
24617;SDS011;12762;51.730;5.356;2023-03-14T04:26:57;4.50;;;0.80;;
24617;SDS011;12762;51.730;5.356;2023-03-14T04:29:24;5.30;;;1.00;;
24617;SDS011;12762;51.730;5.356;2023-03-14T04:31:51;5.23;;;1.20;;
24617;SDS011;12762;51.730;5.356;2023-03-14T04:34:18;5.60;;;1.30;;
24617;SDS011;12762;51.730;5.356;2023-03-14T04:36:45;4.97;;;1.20;;
24617;SDS011;12762;51.730;5.356;2023-03-14T04:39:11;6.23;;;1.00;;
24617;SDS011;12762;51.730;5.356;2023-03-14T04:41:38;4.13;;;0.87;;
24617;SDS011;12762;51.730;5.356;2023-03-14T04:44:05;6.30;;;1.33;;
24617;SDS011;12762;51.730;5.356;2023-03-14T04:46:32;6.73;;;1.03;;
24617;SDS011;12762;51.730;5.356;2023-03-14T04:48:58;7.50;;;1.63;;
24617;SDS011;12762;51.730;5.356;2023-03-14T04:51:25;4.60;;;0.97;;
24617;SDS011;12762;51.730;5.356;2023-03-14T04:53:55;4.17;;;1.10;;
24617;SDS011;12762;51.730;5.356;2023-03-14T04:56:22;4.50;;;1.30;;
24617;SDS011;12762;51.730;5.356;2023-03-14T04:58:53;3.93;;;1.10;;
24617;SDS011;12762;51.730;5.356;2023-03-14T05:01:20;5.97;;;1.07;;
24617;SDS011;12762;51.730;5.356;2023-03-14T05:03:47;4.00;;;1.00;;
24617;SDS011;12762;51.730;5.356;2023-03-14T05:06:14;4.50;;;1.43;;
24617;SDS011;12762;51.730;5.356;2023-03-14T05:08:41;6.17;;;1.37;;
24617;SDS011;12762;51.730;5.356;2023-03-14T05:11:09;6.50;;;1.50;;
24617;SDS011;12762;51.730;5.356;2023-03-14T05:13:39;5.73;;;1.10;;
24617;SDS011;12762;51.730;5.356;2023-03-14T05:16:13;3.03;;;1.10;;
24617;SDS011;12762;51.730;5.356;2023-03-14T05:18:40;3.13;;;1.00;;
24617;SDS011;12762;51.730;5.356;2023-03-14T05:21:07;5.67;;;0.93;;
24617;SDS011;12762;51.730;5.356;2023-03-14T05:23:36;2.93;;;1.30;;
24617;SDS011;12762;51.730;5.356;2023-03-14T05:26:03;6.90;;;1.40;;
24617;SDS011;12762;51.730;5.356;2023-03-14T05:28:30;6.97;;;1.70;;
24617;SDS011;12762;51.730;5.356;2023-03-14T05:30:57;6.40;;;2.00;;
24617;SDS011;12762;51.730;5.356;2023-03-14T05:33:23;5.40;;;1.60;;
24617;SDS011;12762;51.730;5.356;2023-03-14T05:35:50;5.03;;;1.80;;
24617;SDS011;12762;51.730;5.356;2023-03-14T05:38:18;4.63;;;1.90;;
24617;SDS011;12762;51.730;5.356;2023-03-14T05:40:45;6.30;;;2.00;;
24617;SDS011;12762;51.730;5.356;2023-03-14T05:43:15;6.33;;;2.50;;
24617;SDS011;12762;51.730;5.356;2023-03-14T05:45:44;5.87;;;2.17;;
24617;SDS011;12762;51.730;5.356;2023-03-14T05:48:11;4.37;;;2.10;;
24617;SDS011;12762;51.730;5.356;2023-03-14T05:50:38;7.60;;;2.37;;
24617;SDS011;12762;51.730;5.356;2023-03-14T05:53:05;4.47;;;2.30;;
24617;SDS011;12762;51.730;5.356;2023-03-14T05:55:31;5.57;;;2.40;;
24617;SDS011;12762;51.730;5.356;2023-03-14T05:57:58;4.70;;;2.53;;
24617;SDS011;12762;51.730;5.356;2023-03-14T06:00:27;6.10;;;2.40;;
24617;SDS011;12762;51.730;5.356;2023-03-14T06:02:54;6.20;;;2.37;;
24617;SDS011;12762;51.730;5.356;2023-03-14T06:05:21;6.80;;;2.70;;
24617;SDS011;12762;51.730;5.356;2023-03-14T06:07:55;8.03;;;3.20;;
24617;SDS011;12762;51.730;5.356;2023-03-14T06:10:21;7.57;;;2.97;;
24617;SDS011;12762;51.730;5.356;2023-03-14T06:12:48;7.87;;;3.20;;
24617;SDS011;12762;51.730;5.356;2023-03-14T06:15:15;8.10;;;2.90;;
24617;SDS011;12762;51.730;5.356;2023-03-14T06:17:42;10.90;;;3.93;;
24617;SDS011;12762;51.730;5.356;2023-03-14T06:20:09;7.37;;;3.53;;
24617;SDS011;12762;51.730;5.356;2023-03-14T06:22:36;6.53;;;3.03;;
24617;SDS011;12762;51.730;5.356;2023-03-14T06:25:04;6.87;;;3.40;;
24617;SDS011;12762;51.730;5.356;2023-03-14T06:27:32;8.10;;;3.23;;
24617;SDS011;12762;51.730;5.356;2023-03-14T06:30:05;8.03;;;3.43;;
24617;SDS011;12762;51.730;5.356;2023-03-14T06:32:33;6.70;;;3.80;;
24617;SDS011;12762;51.730;5.356;2023-03-14T06:35:00;10.23;;;4.10;;
24617;SDS011;12762;51.730;5.356;2023-03-14T06:37:27;11.83;;;4.13;;
24617;SDS011;12762;51.730;5.356;2023-03-14T06:39:57;8.50;;;4.03;;
24617;SDS011;12762;51.730;5.356;2023-03-14T06:42:24;5.93;;;3.63;;
24617;SDS011;12762;51.730;5.356;2023-03-14T06:44:50;9.73;;;3.80;;
24617;SDS011;12762;51.730;5.356;2023-03-14T06:47:17;7.70;;;3.70;;
24617;SDS011;12762;51.730;5.356;2023-03-14T06:49:49;8.23;;;3.80;;
24617;SDS011;12762;51.730;5.356;2023-03-14T06:52:19;7.27;;;3.63;;
24617;SDS011;12762;51.730;5.356;2023-03-14T06:54:45;7.90;;;3.63;;
24617;SDS011;12762;51.730;5.356;2023-03-14T06:57:12;7.50;;;3.37;;
24617;SDS011;12762;51.730;5.356;2023-03-14T06:59:39;8.03;;;3.83;;
24617;SDS011;12762;51.730;5.356;2023-03-14T07:02:07;12.27;;;4.80;;
24617;SDS011;12762;51.730;5.356;2023-03-14T07:04:37;10.57;;;4.43;;
24617;SDS011;12762;51.730;5.356;2023-03-14T07:07:04;6.00;;;3.37;;
24617;SDS011;12762;51.730;5.356;2023-03-14T07:09:32;2.73;;;0.80;;
24617;SDS011;12762;51.730;5.356;2023-03-14T07:11:59;1.43;;;0.50;;
24617;SDS011;12762;51.730;5.356;2023-03-14T07:14:26;1.47;;;0.53;;
24617;SDS011;12762;51.730;5.356;2023-03-14T07:16:53;2.63;;;0.60;;
24617;SDS011;12762;51.730;5.356;2023-03-14T07:19:20;2.50;;;0.50;;
24617;SDS011;12762;51.730;5.356;2023-03-14T07:21:49;2.77;;;0.63;;
24617;SDS011;12762;51.730;5.356;2023-03-14T07:24:18;1.40;;;0.53;;
24617;SDS011;12762;51.730;5.356;2023-03-14T07:26:45;1.83;;;0.60;;
24617;SDS011;12762;51.730;5.356;2023-03-14T07:29:12;3.57;;;0.50;;
24617;SDS011;12762;51.730;5.356;2023-03-14T07:31:38;3.13;;;0.70;;
24617;SDS011;12762;51.730;5.356;2023-03-14T07:34:05;1.33;;;0.53;;
24617;SDS011;12762;51.730;5.356;2023-03-14T07:36:32;2.07;;;0.63;;
24617;SDS011;12762;51.730;5.356;2023-03-14T07:38:59;1.87;;;0.70;;
24617;SDS011;12762;51.730;5.356;2023-03-14T07:41:26;2.80;;;0.73;;
24617;SDS011;12762;51.730;5.356;2023-03-14T07:43:56;3.40;;;0.90;;
24617;SDS011;12762;51.730;5.356;2023-03-14T07:46:23;5.73;;;1.20;;
24617;SDS011;12762;51.730;5.356;2023-03-14T07:48:50;3.90;;;1.70;;
24617;SDS011;12762;51.730;5.356;2023-03-14T07:51:17;2.70;;;1.00;;
24617;SDS011;12762;51.730;5.356;2023-03-14T07:53:44;2.67;;;0.83;;
24617;SDS011;12762;51.730;5.356;2023-03-14T07:56:11;2.73;;;0.63;;
24617;SDS011;12762;51.730;5.356;2023-03-14T07:58:38;3.87;;;0.80;;
24617;SDS011;12762;51.730;5.356;2023-03-14T08:01:05;0.97;;;0.67;;
24617;SDS011;12762;51.730;5.356;2023-03-14T08:03:32;3.70;;;0.87;;
24617;SDS011;12762;51.730;5.356;2023-03-14T08:05:59;4.10;;;0.90;;
24617;SDS011;12762;51.730;5.356;2023-03-14T08:08:26;2.23;;;0.80;;
24617;SDS011;12762;51.730;5.356;2023-03-14T08:10:52;1.57;;;0.47;;
24617;SDS011;12762;51.730;5.356;2023-03-14T08:13:19;7.63;;;0.87;;
24617;SDS011;12762;51.730;5.356;2023-03-14T08:15:47;2.87;;;0.70;;
24617;SDS011;12762;51.730;5.356;2023-03-14T08:18:15;4.07;;;0.80;;
24617;SDS011;12762;51.730;5.356;2023-03-14T08:20:44;1.87;;;0.53;;
24617;SDS011;12762;51.730;5.356;2023-03-14T08:23:13;2.63;;;0.50;;
24617;SDS011;12762;51.730;5.356;2023-03-14T08:25:40;3.17;;;1.00;;
24617;SDS011;12762;51.730;5.356;2023-03-14T08:28:07;12.80;;;2.13;;
24617;SDS011;12762;51.730;5.356;2023-03-14T08:30:34;4.60;;;1.57;;
24617;SDS011;12762;51.730;5.356;2023-03-14T08:33:01;5.90;;;1.10;;
24617;SDS011;12762;51.730;5.356;2023-03-14T08:35:27;3.00;;;1.03;;
24617;SDS011;12762;51.730;5.356;2023-03-14T08:37:54;3.07;;;0.70;;
24617;SDS011;12762;51.730;5.356;2023-03-14T08:40:21;0.43;;;0.30;;
24617;SDS011;12762;51.730;5.356;2023-03-14T08:42:48;2.17;;;0.60;;
24617;SDS011;12762;51.730;5.356;2023-03-14T08:45:15;1.27;;;0.47;;
24617;SDS011;12762;51.730;5.356;2023-03-14T08:47:43;0.97;;;0.50;;
24617;SDS011;12762;51.730;5.356;2023-03-14T08:50:11;1.40;;;0.47;;
24617;SDS011;12762;51.730;5.356;2023-03-14T08:52:41;1.17;;;0.50;;
24617;SDS011;12762;51.730;5.356;2023-03-14T08:55:08;2.83;;;0.60;;
24617;SDS011;12762;51.730;5.356;2023-03-14T08:57:36;3.33;;;0.87;;
24617;SDS011;12762;51.730;5.356;2023-03-14T09:00:06;10.53;;;1.10;;
24617;SDS011;12762;51.730;5.356;2023-03-14T09:02:41;2.47;;;0.70;;
24617;SDS011;12762;51.730;5.356;2023-03-14T09:05:09;1.67;;;0.77;;
24617;SDS011;12762;51.730;5.356;2023-03-14T09:07:40;2.07;;;0.87;;
24617;SDS011;12762;51.730;5.356;2023-03-14T09:10:07;1.50;;;0.60;;
24617;SDS011;12762;51.730;5.356;2023-03-14T09:12:35;1.03;;;0.20;;
24617;SDS011;12762;51.730;5.356;2023-03-14T09:15:02;1.37;;;0.40;;
24617;SDS011;12762;51.730;5.356;2023-03-14T09:17:30;1.90;;;0.33;;
24617;SDS011;12762;51.730;5.356;2023-03-14T09:19:59;0.97;;;0.20;;
24617;SDS011;12762;51.730;5.356;2023-03-14T09:22:26;0.50;;;0.20;;
24617;SDS011;12762;51.730;5.356;2023-03-14T09:24:52;1.17;;;0.20;;
24617;SDS011;12762;51.730;5.356;2023-03-14T09:27:19;2.23;;;0.17;;
24617;SDS011;12762;51.730;5.356;2023-03-14T09:29:46;2.60;;;0.20;;
24617;SDS011;12762;51.730;5.356;2023-03-14T09:32:13;5.10;;;0.40;;
24617;SDS011;12762;51.730;5.356;2023-03-14T09:34:42;0.57;;;0.20;;
24617;SDS011;12762;51.730;5.356;2023-03-14T09:37:08;2.90;;;0.40;;
24617;SDS011;12762;51.730;5.356;2023-03-14T09:39:35;1.43;;;0.30;;
24617;SDS011;12762;51.730;5.356;2023-03-14T09:42:03;3.43;;;0.40;;
24617;SDS011;12762;51.730;5.356;2023-03-14T09:45:01;2.60;;;0.47;;
24617;SDS011;12762;51.730;5.356;2023-03-14T09:47:33;3.27;;;0.60;;
24617;SDS011;12762;51.730;5.356;2023-03-14T09:50:09;4.90;;;0.70;;
24617;SDS011;12762;51.730;5.356;2023-03-14T09:52:42;3.83;;;0.40;;
24617;SDS011;12762;51.730;5.356;2023-03-14T09:55:18;5.17;;;1.03;;
24617;SDS011;12762;51.730;5.356;2023-03-14T09:57:48;4.53;;;1.07;;
24617;SDS011;12762;51.730;5.356;2023-03-14T10:00:21;4.20;;;0.73;;
24617;SDS011;12762;51.730;5.356;2023-03-14T10:03:09;3.13;;;0.80;;
24617;SDS011;12762;51.730;5.356;2023-03-14T10:05:49;6.27;;;0.83;;
24617;SDS011;12762;51.730;5.356;2023-03-14T10:08:15;6.83;;;1.00;;
24617;SDS011;12762;51.730;5.356;2023-03-14T10:10:42;7.17;;;1.00;;
24617;SDS011;12762;51.730;5.356;2023-03-14T10:15:38;7.63;;;1.23;;
24617;SDS011;12762;51.730;5.356;2023-03-14T10:18:13;10.00;;;1.27;;
24617;SDS011;12762;51.730;5.356;2023-03-14T10:20:44;8.50;;;1.10;;
24617;SDS011;12762;51.730;5.356;2023-03-14T10:25:43;8.80;;;1.30;;
24617;SDS011;12762;51.730;5.356;2023-03-14T10:28:31;7.50;;;0.80;;
24617;SDS011;12762;51.730;5.356;2023-03-14T10:31:00;7.97;;;1.00;;
24617;SDS011;12762;51.730;5.356;2023-03-14T10:33:28;7.27;;;1.10;;
24617;SDS011;12762;51.730;5.356;2023-03-14T10:36:03;8.43;;;1.13;;
24617;SDS011;12762;51.730;5.356;2023-03-14T10:38:46;8.63;;;1.30;;
24617;SDS011;12762;51.730;5.356;2023-03-14T10:41:15;9.47;;;1.43;;
24617;SDS011;12762;51.730;5.356;2023-03-14T10:43:53;9.27;;;1.83;;
24617;SDS011;12762;51.730;5.356;2023-03-14T10:46:23;10.37;;;1.43;;
24617;SDS011;12762;51.730;5.356;2023-03-14T10:48:53;11.23;;;1.93;;
24617;SDS011;12762;51.730;5.356;2023-03-14T10:51:24;12.73;;;1.63;;
24617;SDS011;12762;51.730;5.356;2023-03-14T10:53:58;9.87;;;1.93;;
24617;SDS011;12762;51.730;5.356;2023-03-14T10:56:34;13.97;;;2.03;;
24617;SDS011;12762;51.730;5.356;2023-03-14T10:59:03;8.40;;;1.57;;
24617;SDS011;12762;51.730;5.356;2023-03-14T11:07:38;7.63;;;1.37;;
24617;SDS011;12762;51.730;5.356;2023-03-14T11:10:26;7.23;;;1.30;;
24617;SDS011;12762;51.730;5.356;2023-03-14T11:21:41;12.10;;;2.10;;
24617;SDS011;12762;51.730;5.356;2023-03-14T11:24:24;9.10;;;1.73;;
24617;SDS011;12762;51.730;5.356;2023-03-14T11:27:23;9.60;;;1.80;;
24617;SDS011;12762;51.730;5.356;2023-03-14T11:29:55;14.17;;;1.90;;
24617;SDS011;12762;51.730;5.356;2023-03-14T11:32:50;14.93;;;2.27;;
24617;SDS011;12762;51.730;5.356;2023-03-14T11:40:53;13.90;;;2.00;;
24617;SDS011;12762;51.730;5.356;2023-03-14T11:43:35;6.63;;;1.23;;
24617;SDS011;12762;51.730;5.356;2023-03-14T11:46:10;8.90;;;1.47;;
24617;SDS011;12762;51.730;5.356;2023-03-14T11:49:01;8.77;;;1.30;;
24617;SDS011;12762;51.730;5.356;2023-03-14T11:51:56;10.03;;;1.23;;
24617;SDS011;12762;51.730;5.356;2023-03-14T11:54:39;8.17;;;1.33;;
24617;SDS011;12762;51.730;5.356;2023-03-14T11:57:17;14.53;;;2.00;;
24617;SDS011;12762;51.730;5.356;2023-03-14T12:00:02;7.73;;;1.37;;
24617;SDS011;12762;51.730;5.356;2023-03-14T12:02:48;9.70;;;1.60;;
24617;SDS011;12762;51.730;5.356;2023-03-14T12:10:40;19.80;;;1.90;;
24617;SDS011;12762;51.730;5.356;2023-03-14T12:13:14;15.43;;;2.07;;
24617;SDS011;12762;51.730;5.356;2023-03-14T12:18:32;11.40;;;2.03;;
24617;SDS011;12762;51.730;5.356;2023-03-14T12:21:09;14.57;;;2.13;;
24617;SDS011;12762;51.730;5.356;2023-03-14T12:23:48;15.87;;;2.40;;
24617;SDS011;12762;51.730;5.356;2023-03-14T12:28:50;11.80;;;1.90;;
24617;SDS011;12762;51.730;5.356;2023-03-14T12:34:02;5.93;;;1.40;;
24617;SDS011;12762;51.730;5.356;2023-03-14T12:39:37;6.20;;;1.40;;
24617;SDS011;12762;51.730;5.356;2023-03-14T12:42:13;7.43;;;1.67;;
24617;SDS011;12762;51.730;5.356;2023-03-14T12:48:03;8.67;;;2.07;;
24617;SDS011;12762;51.730;5.356;2023-03-14T12:50:55;7.10;;;1.20;;
24617;SDS011;12762;51.730;5.356;2023-03-14T13:02:01;10.97;;;1.27;;
24617;SDS011;12762;51.730;5.356;2023-03-14T13:10:01;14.10;;;1.30;;
24617;SDS011;12762;51.730;5.356;2023-03-14T13:12:48;8.33;;;1.00;;
24617;SDS011;12762;51.730;5.356;2023-03-14T13:15:33;6.70;;;1.43;;
24617;SDS011;12762;51.730;5.356;2023-03-14T13:18:19;5.77;;;0.97;;
24617;SDS011;12762;51.730;5.356;2023-03-14T13:20:53;10.40;;;1.57;;
24617;SDS011;12762;51.730;5.356;2023-03-14T13:23:28;3.53;;;0.87;;
24617;SDS011;12762;51.730;5.356;2023-03-14T13:25:57;5.83;;;1.10;;
24617;SDS011;12762;51.730;5.356;2023-03-14T13:28:25;5.53;;;1.13;;
24617;SDS011;12762;51.730;5.356;2023-03-14T13:30:57;9.87;;;1.43;;
24617;SDS011;12762;51.730;5.356;2023-03-14T13:33:32;7.27;;;1.27;;
24617;SDS011;12762;51.730;5.356;2023-03-14T13:36:04;8.10;;;1.00;;
24617;SDS011;12762;51.730;5.356;2023-03-14T13:38:33;7.73;;;1.37;;
24617;SDS011;12762;51.730;5.356;2023-03-14T13:41:05;5.00;;;1.20;;
24617;SDS011;12762;51.730;5.356;2023-03-14T13:43:35;6.13;;;1.10;;
24617;SDS011;12762;51.730;5.356;2023-03-14T13:48:35;8.43;;;1.77;;
24617;SDS011;12762;51.730;5.356;2023-03-14T13:51:07;7.07;;;1.27;;
24617;SDS011;12762;51.730;5.356;2023-03-14T13:53:42;7.27;;;1.20;;
24617;SDS011;12762;51.730;5.356;2023-03-14T13:56:13;7.50;;;1.13;;
24617;SDS011;12762;51.730;5.356;2023-03-14T13:58:41;6.87;;;1.07;;
24617;SDS011;12762;51.730;5.356;2023-03-14T14:01:19;8.30;;;1.20;;
24617;SDS011;12762;51.730;5.356;2023-03-14T14:03:48;9.17;;;1.30;;
24617;SDS011;12762;51.730;5.356;2023-03-14T14:09:12;5.87;;;1.00;;
24617;SDS011;12762;51.730;5.356;2023-03-14T14:17:39;8.10;;;1.40;;
24617;SDS011;12762;51.730;5.356;2023-03-14T14:20:31;8.20;;;1.10;;
24617;SDS011;12762;51.730;5.356;2023-03-14T14:23:02;5.37;;;1.27;;
24617;SDS011;12762;51.730;5.356;2023-03-14T14:25:31;4.97;;;1.17;;
24617;SDS011;12762;51.730;5.356;2023-03-14T14:27:58;4.87;;;1.00;;
24617;SDS011;12762;51.730;5.356;2023-03-14T14:30:28;6.73;;;1.10;;
24617;SDS011;12762;51.730;5.356;2023-03-14T14:33:12;6.03;;;1.20;;
24617;SDS011;12762;51.730;5.356;2023-03-14T14:35:55;4.90;;;1.13;;
24617;SDS011;12762;51.730;5.356;2023-03-14T14:38:24;7.97;;;1.93;;
24617;SDS011;12762;51.730;5.356;2023-03-14T14:40:53;9.57;;;1.20;;
24617;SDS011;12762;51.730;5.356;2023-03-14T14:43:26;6.27;;;1.10;;
24617;SDS011;12762;51.730;5.356;2023-03-14T14:45:54;9.20;;;1.13;;
24617;SDS011;12762;51.730;5.356;2023-03-14T14:48:25;7.80;;;1.23;;
24617;SDS011;12762;51.730;5.356;2023-03-14T14:51:00;8.90;;;1.17;;
24617;SDS011;12762;51.730;5.356;2023-03-14T14:53:36;4.90;;;0.87;;
24617;SDS011;12762;51.730;5.356;2023-03-14T14:58:48;12.80;;;1.23;;
24617;SDS011;12762;51.730;5.356;2023-03-14T15:01:17;8.20;;;1.00;;
24617;SDS011;12762;51.730;5.356;2023-03-14T15:03:47;6.97;;;1.47;;
24617;SDS011;12762;51.730;5.356;2023-03-14T15:06:20;5.80;;;1.00;;
24617;SDS011;12762;51.730;5.356;2023-03-14T15:08:52;7.43;;;1.03;;
24617;SDS011;12762;51.730;5.356;2023-03-14T15:11:20;5.60;;;1.03;;
24617;SDS011;12762;51.730;5.356;2023-03-14T15:13:49;3.23;;;0.70;;
24617;SDS011;12762;51.730;5.356;2023-03-14T15:16:21;2.93;;;0.80;;
24617;SDS011;12762;51.730;5.356;2023-03-14T15:18:54;9.77;;;1.40;;
24617;SDS011;12762;51.730;5.356;2023-03-14T15:21:23;7.20;;;1.10;;
24617;SDS011;12762;51.730;5.356;2023-03-14T15:23:50;4.07;;;0.80;;
24617;SDS011;12762;51.730;5.356;2023-03-14T15:26:19;6.70;;;1.10;;
24617;SDS011;12762;51.730;5.356;2023-03-14T15:28:47;7.07;;;1.07;;
24617;SDS011;12762;51.730;5.356;2023-03-14T15:31:15;7.37;;;1.13;;
24617;SDS011;12762;51.730;5.356;2023-03-14T15:33:44;7.20;;;1.47;;
24617;SDS011;12762;51.730;5.356;2023-03-14T15:36:19;5.80;;;0.83;;
24617;SDS011;12762;51.730;5.356;2023-03-14T15:38:52;4.40;;;1.17;;
24617;SDS011;12762;51.730;5.356;2023-03-14T15:41:20;8.30;;;1.00;;
24617;SDS011;12762;51.730;5.356;2023-03-14T15:43:48;9.50;;;1.67;;
24617;SDS011;12762;51.730;5.356;2023-03-14T15:46:15;9.50;;;1.30;;
24617;SDS011;12762;51.730;5.356;2023-03-14T15:48:44;6.83;;;1.10;;
24617;SDS011;12762;51.730;5.356;2023-03-14T15:51:11;8.87;;;1.37;;
24617;SDS011;12762;51.730;5.356;2023-03-14T15:53:38;8.33;;;1.10;;
24617;SDS011;12762;51.730;5.356;2023-03-14T15:56:06;9.20;;;1.00;;
24617;SDS011;12762;51.730;5.356;2023-03-14T15:58:36;5.13;;;0.90;;
24617;SDS011;12762;51.730;5.356;2023-03-14T16:01:09;6.50;;;1.17;;
24617;SDS011;12762;51.730;5.356;2023-03-14T16:03:36;7.17;;;1.13;;
24617;SDS011;12762;51.730;5.356;2023-03-14T16:06:03;6.53;;;1.33;;
24617;SDS011;12762;51.730;5.356;2023-03-14T16:08:33;9.20;;;1.10;;
24617;SDS011;12762;51.730;5.356;2023-03-14T16:11:00;7.87;;;1.10;;
24617;SDS011;12762;51.730;5.356;2023-03-14T16:13:27;9.70;;;1.20;;
24617;SDS011;12762;51.730;5.356;2023-03-14T16:15:56;5.23;;;1.33;;
24617;SDS011;12762;51.730;5.356;2023-03-14T16:18:24;5.60;;;1.00;;
24617;SDS011;12762;51.730;5.356;2023-03-14T16:20:53;8.13;;;1.10;;
24617;SDS011;12762;51.730;5.356;2023-03-14T16:23:22;7.93;;;1.10;;
24617;SDS011;12762;51.730;5.356;2023-03-14T16:25:49;6.83;;;0.97;;
24617;SDS011;12762;51.730;5.356;2023-03-14T16:28:16;3.07;;;0.90;;